Mitchellville, IA

10:09 PM CDT on August 27, 2014 (GMT -0500)
Des Moines International | Change Station
CLOSE
Current Station
Airport
Location: Des Moines,
Elevation: 965 ft
Nearby Weather Stations

Elev 965 ft 41.53 °N, 93.66 °W | Updated 15 minutes ago

Overcast
Overcast
73 °F
Feels Like 73 °F
N
4
Wind Variable Wind from East

Today
High -- | Low -- °F
--% Chance of Precip.
Yesterday
High -- | Low -- °F
Precip. -- in
6:34 AM 7:54 PM
Waxing Crescent, 6% visible
Pressure 30.09 in
Visibility 10.0 miles
Clouds Few 9500 ft
Scattered Clouds 11000 ft
Mostly Cloudy 14000 ft
Overcast 25000 ft
Dew Point 68 °F
Humidity 84%
Rainfall 0.01 in
Snow Depth Not available.
UV 0 out of 12
Pollen 4.30 out of 12
Ozone Good
PM2.5 Good
Flu Activity Not available.
METAR KDSM 280254Z 10003KT 10SM FEW095 SCT110 BKN140 OVC250 23/20 A3010 RMK AO2 SLP187 T02280200 51010

More Conditions Fewer Conditions

Pressure 30.09 in
Visibility 10.0 miles
Clouds Few 9500 ft
Scattered Clouds 11000 ft
Mostly Cloudy 14000 ft
Overcast 25000 ft
Dew Point 68 °F
Humidity 84%
Rainfall 0.01 in
Snow Depth Not available.
UV 0 out of 12
Pollen 4.30 out of 12
Ozone Good
PM2.5 Good
Flu Activity Not available.
METAR KDSM 280254Z 10003KT 10SM FEW095 SCT110 BKN140 OVC250 23/20 A3010 RMK AO2 SLP187 T02280200 51010

More Conditions Fewer Conditions

10-Day Weather Forecast

Almanac

Astronomy

Aug. 27, 2014 Rise Set
Actual Time 6:34 AM CDT 7:54 PM CDT
Civil Twilight 6:05 AM CDT 8:23 PM CDT
Nautical Twilight 5:30 AM CDT 8:58 PM CDT
Astronomical Twilight 4:54 AM CDT 9:34 PM CDT
Moon 8:33 AM CDT (8/27) 8:44 PM CDT (8/27)
Length of Visible Light 14h 18m
Length of Day
13h 20m
Tomorrow will be 2m 39s shorter.
Waxing Crescent, 6% of the Moon is Illuminated
Today
Waxing Crescent
Sep 2
First Quarter
Sep 8
Full
Sep 15
Last Quarter
Sep 24
New

Today's Extremes

State Highs State Lows

Community

WunderPhotos

Upload Photos

1,747,888 photos uploaded!

Nearby

Air Quality

  Air Quality AQ Index Pollutant
Yesterday Good
OZONE
Yesterday Good
PM2.5
Current Good
PM2.5
Current Good
OZONE
Wednesday Good
OZONE
Wednesday Good
PM2.5
Wednesday Good
CO
Wednesday Good
NO2
Thursday Good
OZONE
Thursday Good
PM2.5
Thursday Good
CO
Thursday Good
NO2
Friday Good
OZONE
Friday Good
PM2.5
Friday Good
CO
Friday Good
NO2
Saturday Good
OZONE
Saturday Good
PM2.5
Saturday Good
CO
Saturday Good
NO2

Snow Depth

Station Depth Elevation
No new snow has been reported.

Earthquake Activity

City Distance Mag. Time & Date
No recent earthquake activity has been reported nearby.
Minimum magnitude displayed is 2.5.

Coastal Water Temperatures

Place Temperature
No Stations Reporting

Nearby Weather Stations